createdAt,value
2022-08-14T00:00:00.264Z,3.85
2022-08-14T00:04:01.951Z,3.80
2022-08-14T00:08:45.098Z,4.22
2022-08-14T00:12:56.813Z,4.15
2022-08-14T00:16:58.976Z,4.20
2022-08-14T00:21:03.468Z,4.37
2022-08-14T00:25:07.291Z,4.55
2022-08-14T00:29:09.027Z,4.35
2022-08-14T00:33:15.151Z,4.82
2022-08-14T00:37:17.703Z,4.60
2022-08-14T00:41:19.458Z,5.00
2022-08-14T00:45:22.165Z,4.82
2022-08-14T00:49:23.891Z,5.15
2022-08-14T00:53:26.391Z,4.18
2022-08-14T00:57:34.002Z,5.05
2022-08-14T01:01:38.964Z,4.87
2022-08-14T01:05:51.601Z,4.57
2022-08-14T01:09:58.683Z,5.57
2022-08-14T01:14:01.578Z,5.45
2022-08-14T01:18:40.216Z,5.10
2022-08-14T01:22:42.984Z,5.32
2022-08-14T01:26:50.701Z,5.22
2022-08-14T01:30:57.524Z,5.10
2022-08-14T01:35:17.957Z,5.60
2022-08-14T01:39:21.219Z,5.32
2022-08-14T01:43:27.134Z,6.32
2022-08-14T01:47:33.568Z,5.87
2022-08-14T01:51:43.549Z,6.00
2022-08-14T01:55:45.310Z,6.43
2022-08-14T01:59:50.170Z,6.18
2022-08-14T02:03:53.451Z,6.10
2022-08-14T02:08:09.554Z,6.15
2022-08-14T02:12:26.609Z,6.00
2022-08-14T02:16:38.848Z,6.57
2022-08-14T02:20:40.563Z,6.50
2022-08-14T02:24:45.128Z,7.00
2022-08-14T02:29:00.579Z,6.35
2022-08-14T02:33:05.727Z,6.47
2022-08-14T02:37:17.979Z,6.75
2022-08-14T02:41:19.976Z,6.55
2022-08-14T02:45:22.162Z,7.15
2022-08-14T02:49:33.110Z,6.85
2022-08-14T02:53:39.710Z,7.40
2022-08-14T02:57:44.099Z,6.22
2022-08-14T03:01:51.219Z,6.78
2022-08-14T03:05:56.704Z,6.65
2022-08-14T03:10:27.588Z,7.20
2022-08-14T03:14:25.624Z,7.43
2022-08-14T03:18:31.182Z,7.05
2022-08-14T03:22:34.674Z,7.35
2022-08-14T03:26:38.087Z,7.97
2022-08-14T03:30:41.619Z,8.48
2022-08-14T03:34:48.444Z,8.20
2022-08-14T03:39:15.691Z,8.10
2022-08-14T03:43:21.207Z,7.82
2022-08-14T03:47:23.264Z,8.63
2022-08-14T03:51:45.559Z,8.18
2022-08-14T03:55:48.835Z,8.10
2022-08-14T03:59:54.171Z,7.82
2022-08-14T04:04:06.276Z,8.63
2022-08-14T04:08:28.956Z,8.80
2022-08-14T04:12:31.956Z,9.20
2022-08-14T04:16:34.354Z,9.55
2022-08-14T04:20:40.762Z,9.38
2022-08-14T04:24:53.443Z,8.97
2022-08-14T04:29:06.767Z,9.90
2022-08-14T04:33:20.472Z,8.90
2022-08-14T04:37:45.010Z,9.00
2022-08-14T04:42:09.245Z,9.00
2022-08-14T04:46:57.444Z,9.15
2022-08-14T04:50:53.863Z,9.38
2022-08-14T04:54:56.303Z,9.13
2022-08-14T04:59:02.202Z,9.00
2022-08-14T05:07:09.353Z,8.52
2022-08-14T05:11:13.407Z,8.07
2022-08-14T05:15:15.662Z,8.00
2022-08-14T05:19:27.390Z,8.55
2022-08-14T05:23:33.796Z,9.05
2022-08-14T05:27:36.627Z,10.55
2022-08-14T05:31:40.533Z,10.15
2022-08-14T05:35:44.240Z,9.27
2022-08-14T05:39:48.428Z,9.38
2022-08-14T05:43:51.071Z,9.65
2022-08-14T05:47:53.217Z,9.30
2022-08-14T05:51:55.397Z,9.82
2022-08-14T05:56:00.312Z,9.80
2022-08-14T06:00:01.987Z,9.18
2022-08-14T06:04:04.606Z,8.63
2022-08-14T06:08:36.270Z,8.95
2022-08-14T06:12:56.446Z,8.75
2022-08-14T06:16:58.922Z,8.82
2022-08-14T06:21:02.378Z,8.60
2022-08-14T06:25:04.638Z,8.88
2022-08-14T06:29:07.431Z,8.98
2022-08-14T06:33:09.195Z,8.52
2022-08-14T06:37:10.992Z,8.60
2022-08-14T06:41:13.249Z,8.27
2022-08-14T06:45:26.467Z,7.90
2022-08-14T06:49:30.172Z,7.83
2022-08-14T06:53:32.401Z,8.13
2022-08-14T06:57:42.260Z,7.28
2022-08-14T07:02:02.777Z,7.60
2022-08-14T07:06:11.651Z,7.10
2022-08-14T07:10:24.984Z,7.47
2022-08-14T07:14:27.248Z,7.18
2022-08-14T07:18:31.318Z,7.12
2022-08-14T07:22:49.903Z,6.87
2022-08-14T07:26:54.656Z,6.78
2022-08-14T07:31:04.716Z,6.78
2022-08-14T07:35:07.706Z,13.15
2022-08-14T07:39:12.423Z,9.40
2022-08-14T07:43:15.274Z,10.10
2022-08-14T07:47:18.043Z,5.72
2022-08-14T07:51:20.229Z,6.65
2022-08-14T07:55:22.049Z,5.93
2022-08-14T07:59:40.527Z,5.85
2022-08-14T08:03:49.644Z,5.85
2022-08-14T08:07:55.981Z,5.60
2022-08-14T08:11:58.271Z,5.65
2022-08-14T08:16:00.054Z,5.37
2022-08-14T08:20:02.731Z,16.58
2022-08-14T08:24:04.586Z,5.50
2022-08-14T08:28:31.343Z,5.53
2022-08-14T08:32:43.650Z,5.30
2022-08-14T08:36:46.558Z,5.25
2022-08-14T08:40:50.223Z,4.90
2022-08-14T08:44:55.475Z,5.18
2022-08-14T08:53:06.197Z,4.40
2022-08-14T08:57:12.708Z,4.93
2022-08-14T09:01:29.402Z,4.35
2022-08-14T09:05:34.341Z,3.80
2022-08-14T09:09:53.505Z,3.72
2022-08-14T09:14:00.371Z,3.45
2022-08-14T09:18:02.152Z,3.30
2022-08-14T09:22:35.962Z,3.17
2022-08-14T09:26:28.555Z,3.70
2022-08-14T09:30:33.909Z,3.50
2022-08-14T09:34:47.417Z,3.28
2022-08-14T09:39:06.547Z,3.53
2022-08-14T09:43:43.591Z,3.37
2022-08-14T09:47:54.370Z,3.47
2022-08-14T09:52:05.319Z,3.83
2022-08-14T09:56:30.721Z,4.53
2022-08-14T10:01:01.527Z,3.72
2022-08-14T10:05:03.127Z,3.83
2022-08-14T10:09:06.522Z,3.37
2022-08-14T10:13:25.206Z,3.50
2022-08-14T10:17:33.059Z,3.10
2022-08-14T10:23:11.070Z,3.42
2022-08-14T10:26:09.391Z,3.67
2022-08-14T10:30:22.660Z,3.67
2022-08-14T10:34:40.981Z,3.47
2022-08-14T10:38:42.793Z,3.40
2022-08-14T10:42:52.270Z,3.50
2022-08-14T10:47:39.643Z,4.62
2022-08-14T10:51:26.292Z,3.62
2022-08-14T10:55:45.608Z,3.50
2022-08-14T10:59:59.694Z,3.85
2022-08-14T11:04:02.328Z,3.53
2022-08-14T11:08:09.175Z,3.70
2022-08-14T11:12:39.988Z,3.17
2022-08-14T11:16:40.871Z,3.92
2022-08-14T11:20:54.460Z,3.40
2022-08-14T11:25:04.187Z,3.87
2022-08-14T11:29:10.592Z,3.50
2022-08-14T11:33:12.840Z,3.65
2022-08-14T11:37:19.035Z,4.60
2022-08-14T11:41:28.685Z,4.37
2022-08-14T11:45:34.250Z,4.40
2022-08-14T11:49:40.230Z,4.45
2022-08-14T11:53:43.504Z,3.92
2022-08-14T11:57:59.757Z,3.60
2022-08-14T12:03:00.491Z,3.60
2022-08-14T12:06:55.746Z,3.33
2022-08-14T12:10:58.527Z,3.55
2022-08-14T12:15:00.999Z,3.15
2022-08-14T12:19:02.776Z,3.70
2022-08-14T12:23:07.437Z,3.33
2022-08-14T12:27:13.102Z,3.78
2022-08-14T12:31:20.602Z,3.03
2022-08-14T12:35:25.546Z,3.33
2022-08-14T12:39:27.238Z,3.58
2022-08-14T12:43:29.323Z,3.70
2022-08-14T12:47:31.702Z,3.20
2022-08-14T12:51:35.451Z,3.53
2022-08-14T12:56:22.388Z,3.22
2022-08-14T13:00:26.521Z,3.42
2022-08-14T13:04:31.116Z,3.30
2022-08-14T13:08:34.310Z,3.20
2022-08-14T13:12:51.249Z,3.25
2022-08-14T13:17:04.102Z,2.95
2022-08-14T13:21:07.199Z,3.25
2022-08-14T13:25:20.289Z,3.40
2022-08-14T13:29:26.430Z,2.70
2022-08-14T13:33:32.881Z,3.20
2022-08-14T13:37:34.951Z,2.72
2022-08-14T13:41:37.771Z,3.05
2022-08-14T13:46:00.362Z,3.20
2022-08-14T13:50:04.977Z,2.50
2022-08-14T13:54:10.483Z,2.78
2022-08-14T14:02:47.741Z,3.30
2022-08-14T14:06:51.933Z,3.17
2022-08-14T14:10:55.843Z,3.00
2022-08-14T14:15:05.149Z,3.35
2022-08-14T14:19:09.687Z,3.33
2022-08-14T14:23:17.590Z,2.97
2022-08-14T14:31:43.023Z,3.15
2022-08-14T14:35:45.810Z,3.08
2022-08-14T14:40:54.819Z,3.30
2022-08-14T14:44:15.787Z,3.12
2022-08-14T14:48:19.495Z,3.12
2022-08-14T14:52:27.203Z,3.75
2022-08-14T14:56:48.378Z,2.80
2022-08-14T15:00:59.879Z,4.00
2022-08-14T15:05:02.036Z,3.80
2022-08-14T15:09:05.004Z,3.40
2022-08-14T15:17:12.832Z,3.25
2022-08-14T15:21:14.943Z,3.47
2022-08-14T15:25:18.572Z,3.17
2022-08-14T15:29:43.354Z,3.35
2022-08-14T15:34:40.936Z,3.45
2022-08-14T15:38:25.982Z,3.05
2022-08-14T15:42:32.414Z,3.22
2022-08-14T15:46:43.059Z,3.45
2022-08-14T15:50:47.436Z,3.42
2022-08-14T15:54:52.607Z,2.72
2022-08-14T15:58:54.785Z,3.00
2022-08-14T16:02:56.533Z,3.70
2022-08-14T16:06:58.245Z,3.78
2022-08-14T16:11:03.165Z,4.03
2022-08-14T16:15:05.375Z,3.53
2022-08-14T16:23:18.196Z,3.00
2022-08-14T16:27:23.619Z,3.30
2022-08-14T16:31:43.833Z,3.10
2022-08-14T16:35:59.476Z,3.40
2022-08-14T16:40:02.656Z,3.10
2022-08-14T16:44:21.577Z,3.35
2022-08-14T16:48:54.727Z,3.40
2022-08-14T16:52:55.822Z,2.83
2022-08-14T16:57:23.550Z,3.00
2022-08-14T17:01:25.342Z,2.90
2022-08-14T17:05:29.361Z,3.40
2022-08-14T17:09:43.531Z,2.80
2022-08-14T17:13:58.008Z,3.10
2022-08-14T17:18:02.841Z,2.67
2022-08-14T17:22:09.148Z,3.17
2022-08-14T17:26:33.841Z,2.95
2022-08-14T17:30:56.738Z,3.15
2022-08-14T17:35:01.624Z,2.90
2022-08-14T17:39:17.122Z,2.80
2022-08-14T17:43:19.808Z,2.90
2022-08-14T17:47:26.703Z,3.20
2022-08-14T17:51:30.241Z,3.15
2022-08-14T17:56:02.171Z,2.80
2022-08-14T17:59:55.841Z,16.33
2022-08-14T18:04:05.621Z,2.67
2022-08-14T18:08:33.942Z,2.30
2022-08-14T18:12:43.929Z,2.72
2022-08-14T18:16:46.683Z,2.53
2022-08-14T18:21:24.222Z,3.08
2022-08-14T18:25:19.264Z,2.80
2022-08-14T18:29:25.215Z,2.72
2022-08-14T18:33:35.394Z,2.95
2022-08-14T18:37:55.978Z,2.97
2022-08-14T18:42:23.579Z,3.27
2022-08-14T18:46:59.684Z,3.22
2022-08-14T18:50:48.725Z,3.25
2022-08-14T18:54:59.618Z,3.70
2022-08-14T18:59:01.675Z,4.05
2022-08-14T19:03:06.916Z,3.80
2022-08-14T19:07:18.665Z,3.22
2022-08-14T19:11:34.193Z,3.50
2022-08-14T19:15:38.394Z,3.58
2022-08-14T19:19:40.189Z,4.05
2022-08-14T19:24:27.812Z,3.58
2022-08-14T19:28:43.467Z,3.97
2022-08-14T19:32:45.211Z,3.65
2022-08-14T19:37:05.964Z,4.10
2022-08-14T19:41:16.625Z,3.97
2022-08-14T19:45:18.670Z,4.18
2022-08-14T19:50:09.007Z,4.03
2022-08-14T19:53:58.935Z,4.70
2022-08-14T19:58:01.389Z,6.50
2022-08-14T20:02:03.622Z,7.65
2022-08-14T20:06:08.795Z,4.60
2022-08-14T20:11:12.482Z,4.60
2022-08-14T20:15:04.326Z,4.62
2022-08-14T20:19:17.426Z,4.35
2022-08-14T20:23:20.094Z,4.95
2022-08-14T20:27:33.702Z,4.15
2022-08-14T20:31:38.429Z,4.70
2022-08-14T20:35:52.061Z,4.53
2022-08-14T20:39:55.799Z,4.30
2022-08-14T20:44:20.808Z,4.95
2022-08-14T20:48:51.386Z,4.95
2022-08-14T20:52:49.232Z,4.95
2022-08-14T20:56:53.374Z,4.95
2022-08-14T21:01:00.489Z,4.70
2022-08-14T21:05:16.812Z,4.43
2022-08-14T21:10:03.181Z,4.32
2022-08-14T21:14:19.986Z,4.85
2022-08-14T21:18:13.270Z,4.70
2022-08-14T21:22:18.591Z,6.03
2022-08-14T21:26:50.484Z,4.82
2022-08-14T21:30:51.756Z,4.85
2022-08-14T21:34:55.207Z,4.55
2022-08-14T21:38:59.008Z,4.78
2022-08-14T21:43:01.031Z,4.68
2022-08-14T21:47:03.797Z,5.03
2022-08-14T21:51:55.305Z,4.70
2022-08-14T21:55:27.545Z,5.20
2022-08-14T21:59:34.354Z,5.30
2022-08-14T22:03:39.607Z,5.22
2022-08-14T22:07:47.301Z,5.10
2022-08-14T22:11:56.753Z,5.30
2022-08-14T22:15:59.560Z,4.68
2022-08-14T22:20:06.964Z,4.85
2022-08-14T22:24:10.761Z,5.90
2022-08-14T22:28:27.503Z,5.87
2022-08-14T22:32:57.620Z,5.72
2022-08-14T22:36:57.007Z,5.57
2022-08-14T22:41:25.551Z,5.78
2022-08-14T22:45:20.421Z,5.37
2022-08-14T22:50:28.736Z,5.40
2022-08-14T22:53:52.317Z,6.22
2022-08-14T22:57:54.325Z,5.28
2022-08-14T23:02:05.043Z,6.28
2022-08-14T23:07:02.808Z,5.35
2022-08-14T23:10:35.922Z,5.90
2022-08-14T23:14:38.772Z,5.90
2022-08-14T23:18:43.229Z,6.00
2022-08-14T23:22:46.577Z,6.03
2022-08-14T23:26:53.741Z,6.32
2022-08-14T23:30:55.655Z,5.97
2022-08-14T23:34:58.503Z,6.03
2022-08-14T23:39:00.497Z,6.00
2022-08-14T23:43:08.002Z,5.30
2022-08-14T23:47:26.152Z,5.80
2022-08-14T23:51:28.883Z,5.87
2022-08-14T23:55:42.030Z,6.05
2022-08-14T23:59:45.139Z,5.82
